EHKD/DHR METAR and TAF weather

Enter ICAO airport designator
Station Type Date Time Source
EHKD METAR 2021/08/04 19:25 UTC NOAA

EHKD 041925Z AUTO 09005KT 9999 FEW076 18/12 Q1012 BLU


Station Type Date Time Source
EHKD Decoded METAR 2021/08/04 19:25 UTC NOAA

De Kooy, Netherlands (EHKD) 52-55N 004-47E 14M
Aug 04, 2021 - 03:25 PM EDT / 2021.08.04 1925 UTC
Wind: from the E (090 degrees) at 6 MPH (5 KT):0
Visibility: greater than 7 mile(s):0
Sky conditions: mostly clear
Temperature: 64 F (18 C)
Dew Point: 53 F (12 C)
Relative Humidity: 67%
Pressure (altimeter): 29.88 in. Hg (1012 hPa)
ob: EHKD 041925Z AUTO 09005KT 9999 FEW076 18/12 Q1012 BLU
cycle: 19

Station Type Date Time Source
EHKD TAF 2021/08/04 17:06 UTC NOAA

TAF TAF EHKD 041631Z 0417/0505 05011KT CAVOK
BECMG 0417/0420 09005KT PROB40
TEMPO 0417/1420 4500 SHRA FEW020 SCT025CB BKN030
BECMG 0501/0503 12004KT PROB30 0501/0504 4500 BR

Example: see airport list